createdAt,value
2022-10-31T00:01:14.620Z,10.17
2022-10-31T00:03:41.049Z,10.20
2022-10-31T00:06:07.741Z,10.15
2022-10-31T00:08:34.359Z,10.10
2022-10-31T00:11:01.170Z,10.14
2022-10-31T00:13:27.720Z,9.98
2022-10-31T00:15:54.148Z,9.83
2022-10-31T00:18:20.653Z,9.67
2022-10-31T00:20:47.060Z,9.82
2022-10-31T00:23:13.537Z,9.81
2022-10-31T00:25:40.981Z,9.95
2022-10-31T00:28:09.893Z,9.97
2022-10-31T00:30:36.654Z,9.88
2022-10-31T00:33:05.397Z,9.95
2022-10-31T00:35:32.603Z,9.96
2022-10-31T00:37:59.108Z,9.91
2022-10-31T00:40:25.678Z,9.80
2022-10-31T00:42:52.381Z,9.84
2022-10-31T00:45:18.829Z,9.91
2022-10-31T00:47:45.327Z,9.87
2022-10-31T00:50:11.868Z,9.91
2022-10-31T00:52:38.423Z,9.89
2022-10-31T00:55:05.236Z,9.92
2022-10-31T00:57:31.855Z,9.80
2022-10-31T00:59:58.345Z,9.94
2022-10-31T01:02:24.828Z,9.70
2022-10-31T01:04:51.375Z,9.72
2022-10-31T01:07:17.801Z,9.77
2022-10-31T01:09:44.964Z,9.66
2022-10-31T01:12:11.528Z,9.58
2022-10-31T01:14:43.054Z,9.60
2022-10-31T01:17:09.489Z,9.55
2022-10-31T01:19:36.027Z,9.65
2022-10-31T01:22:02.484Z,9.51
2022-10-31T01:24:29.837Z,9.51
2022-10-31T01:26:56.355Z,9.56
2022-10-31T01:29:22.819Z,9.61
2022-10-31T01:31:49.536Z,9.51
2022-10-31T01:34:18.296Z,9.63
2022-10-31T01:36:47.772Z,9.58
2022-10-31T01:39:16.331Z,9.65
2022-10-31T01:41:46.083Z,9.67
2022-10-31T01:44:16.180Z,9.60
2022-10-31T01:47:21.550Z,9.63
2022-10-31T01:49:55.543Z,9.56
2022-10-31T01:52:31.633Z,9.43
2022-10-31T01:55:20.076Z,9.53
2022-10-31T01:57:51.036Z,9.46
2022-10-31T02:00:18.709Z,9.33
2022-10-31T02:02:47.199Z,9.35
2022-10-31T02:05:19.568Z,9.51
2022-10-31T02:08:01.073Z,9.39
2022-10-31T02:10:31.341Z,9.43
2022-10-31T02:13:00.818Z,9.40
2022-10-31T02:15:29.294Z,9.40
2022-10-31T02:17:55.759Z,9.33
2022-10-31T02:20:25.147Z,9.37
2022-10-31T02:23:03.919Z,9.41
2022-10-31T02:25:54.233Z,9.21
2022-10-31T02:28:24.345Z,9.37
2022-10-31T02:31:28.392Z,9.35
2022-10-31T02:34:00.489Z,9.24
2022-10-31T02:36:42.072Z,9.31
2022-10-31T02:39:14.616Z,9.30
2022-10-31T02:42:02.122Z,9.09
2022-10-31T02:44:39.363Z,9.04
2022-10-31T02:47:12.983Z,9.04
2022-10-31T02:49:50.208Z,9.16
2022-10-31T02:52:24.756Z,9.23
2022-10-31T02:54:53.020Z,9.32
2022-10-31T02:57:25.341Z,9.29
2022-10-31T02:59:59.118Z,9.16
2022-10-31T03:02:58.652Z,9.26
2022-10-31T03:05:35.529Z,9.18
2022-10-31T03:08:21.558Z,9.21
2022-10-31T03:10:57.068Z,9.37
2022-10-31T03:13:35.365Z,9.41
2022-10-31T03:16:30.073Z,9.33
2022-10-31T03:19:06.063Z,9.40
2022-10-31T03:21:46.259Z,9.26
2022-10-31T03:24:14.518Z,9.16
2022-10-31T03:26:47.256Z,9.23
2022-10-31T03:29:19.551Z,9.20
2022-10-31T03:31:53.046Z,9.06
2022-10-31T03:34:21.761Z,8.78
2022-10-31T03:36:52.932Z,8.76
2022-10-31T03:39:22.607Z,9.02
2022-10-31T03:42:03.278Z,9.10
2022-10-31T03:44:31.089Z,8.93
2022-10-31T03:47:02.093Z,9.00
2022-10-31T03:49:29.487Z,9.01
2022-10-31T03:52:07.149Z,8.98
2022-10-31T03:54:46.410Z,8.89
2022-10-31T03:57:18.882Z,8.73
2022-10-31T03:59:51.884Z,8.78
2022-10-31T04:02:23.641Z,8.87
2022-10-31T04:04:51.753Z,8.77
2022-10-31T04:07:19.569Z,8.85
2022-10-31T04:09:52.390Z,8.90
2022-10-31T04:12:22.550Z,8.93
2022-10-31T04:15:10.897Z,8.84
2022-10-31T04:17:43.536Z,8.92
2022-10-31T04:20:10.951Z,8.92
2022-10-31T04:22:37.637Z,8.56
2022-10-31T04:25:04.434Z,9.00
2022-10-31T04:27:30.994Z,8.94
2022-10-31T04:29:57.508Z,8.90
2022-10-31T04:32:24.691Z,8.94
2022-10-31T04:34:52.556Z,8.98
2022-10-31T04:37:19.347Z,8.96
2022-10-31T04:39:47.424Z,8.92
2022-10-31T04:42:45.950Z,8.75
2022-10-31T04:45:15.503Z,8.97
2022-10-31T04:47:45.087Z,8.99
2022-10-31T04:50:11.527Z,8.99
2022-10-31T04:52:42.860Z,8.98
2022-10-31T04:55:12.853Z,8.88
2022-10-31T04:57:58.758Z,8.86
2022-10-31T05:00:26.742Z,8.89
2022-10-31T05:02:55.753Z,8.93
2022-10-31T05:05:29.766Z,8.98
2022-10-31T05:07:56.779Z,8.86
2022-10-31T05:10:27.483Z,8.70
2022-10-31T05:12:58.504Z,8.70
2022-10-31T05:15:43.244Z,8.80
2022-10-31T05:18:35.601Z,8.79
2022-10-31T05:21:04.758Z,8.75
2022-10-31T05:23:35.412Z,8.66
2022-10-31T05:26:04.099Z,8.74
2022-10-31T05:28:30.594Z,8.76
2022-10-31T05:30:58.028Z,8.81
2022-10-31T05:33:24.727Z,8.82
2022-10-31T05:36:09.907Z,8.82
2022-10-31T05:38:41.820Z,8.76
2022-10-31T05:41:13.195Z,8.88
2022-10-31T05:43:44.058Z,8.86
2022-10-31T05:46:10.524Z,8.69
2022-10-31T05:49:03.144Z,8.75
2022-10-31T05:52:04.964Z,8.72
2022-10-31T05:54:40.447Z,8.62
2022-10-31T05:57:06.967Z,8.81
2022-10-31T05:59:33.465Z,8.73
2022-10-31T06:02:00.847Z,8.68
2022-10-31T06:04:47.542Z,8.61
2022-10-31T06:07:14.263Z,8.20
2022-10-31T06:09:40.671Z,8.47
2022-10-31T06:12:08.615Z,8.47
2022-10-31T06:15:08.324Z,8.44
2022-10-31T06:17:35.834Z,8.51
2022-10-31T06:20:05.995Z,8.61
2022-10-31T06:22:37.991Z,8.58
2022-10-31T06:25:05.408Z,8.62
2022-10-31T06:27:35.025Z,8.72
2022-10-31T06:30:09.172Z,8.53
2022-10-31T06:32:36.962Z,8.43
2022-10-31T06:35:03.997Z,8.40
2022-10-31T06:37:33.029Z,8.43
2022-10-31T06:40:06.800Z,8.45
2022-10-31T06:42:48.619Z,9.20
2022-10-31T06:45:15.154Z,9.79
2022-10-31T06:48:18.677Z,10.25
2022-10-31T06:51:03.947Z,10.55
2022-10-31T06:53:33.486Z,10.76
2022-10-31T06:56:00.581Z,10.86
2022-10-31T06:58:27.151Z,11.05
2022-10-31T07:01:01.394Z,11.20
2022-10-31T07:03:28.136Z,11.13
2022-10-31T07:05:56.953Z,11.03
2022-10-31T07:08:24.537Z,10.71
2022-10-31T07:10:54.037Z,10.60
2022-10-31T07:13:28.228Z,10.58
2022-10-31T07:16:05.551Z,10.49
2022-10-31T07:18:34.953Z,10.54
2022-10-31T07:21:01.937Z,10.52
2022-10-31T07:23:28.398Z,10.65
2022-10-31T07:26:13.471Z,10.69
2022-10-31T07:28:46.839Z,10.66
2022-10-31T07:31:13.815Z,10.83
2022-10-31T07:33:40.725Z,10.70
2022-10-31T07:36:27.443Z,10.89
2022-10-31T07:38:59.324Z,10.88
2022-10-31T07:41:25.985Z,11.12
2022-10-31T07:46:43.130Z,11.54
2022-10-31T07:49:35.424Z,11.70
2022-10-31T07:52:20.613Z,11.78
2022-10-31T07:55:06.974Z,11.88
2022-10-31T07:57:37.489Z,11.98
2022-10-31T08:00:09.593Z,11.55
2022-10-31T08:02:41.351Z,11.55
2022-10-31T08:05:31.897Z,11.56
2022-10-31T08:08:18.396Z,11.61
2022-10-31T08:10:47.546Z,11.52
2022-10-31T08:13:15.149Z,11.37
2022-10-31T08:15:50.793Z,11.53
2022-10-31T08:18:18.822Z,11.61
2022-10-31T08:20:45.708Z,11.59
2022-10-31T08:23:13.604Z,11.60
2022-10-31T08:25:43.180Z,11.48
2022-10-31T08:28:11.552Z,11.49
2022-10-31T08:30:42.069Z,11.60
2022-10-31T08:33:47.048Z,11.72
2022-10-31T08:36:19.806Z,11.60
2022-10-31T08:38:55.469Z,11.73
2022-10-31T08:41:24.359Z,11.61
2022-10-31T08:43:50.858Z,11.78
2022-10-31T08:46:17.688Z,11.72
2022-10-31T08:48:44.745Z,11.88
2022-10-31T08:51:12.011Z,11.94
2022-10-31T08:53:38.469Z,12.06
2022-10-31T08:56:30.812Z,12.16
2022-10-31T08:58:57.268Z,12.23
2022-10-31T09:01:33.462Z,12.35
2022-10-31T09:04:00.043Z,12.44
2022-10-31T09:06:26.955Z,12.49
2022-10-31T09:08:54.038Z,12.54
2022-10-31T09:11:24.585Z,12.56
2022-10-31T09:14:09.524Z,12.58
2022-10-31T09:16:38.673Z,12.64
2022-10-31T09:19:11.433Z,12.70
2022-10-31T09:21:38.359Z,12.79
2022-10-31T09:24:05.436Z,12.88
2022-10-31T09:26:31.969Z,12.96
2022-10-31T09:29:24.471Z,13.16
2022-10-31T09:31:57.444Z,13.23
2022-10-31T09:34:28.733Z,13.31
2022-10-31T09:37:15.476Z,13.42
2022-10-31T09:39:42.992Z,13.49
2022-10-31T09:42:29.948Z,13.49
2022-10-31T09:45:23.355Z,13.65
2022-10-31T09:48:25.335Z,13.79
2022-10-31T09:51:23.091Z,13.88
2022-10-31T09:53:56.480Z,13.65
2022-10-31T09:56:26.292Z,14.02
2022-10-31T09:59:00.586Z,14.06
2022-10-31T10:01:49.722Z,14.22
2022-10-31T10:04:37.980Z,14.30
2022-10-31T10:07:21.242Z,14.46
2022-10-31T10:10:26.311Z,14.56
2022-10-31T10:13:54.749Z,14.64
2022-10-31T10:16:34.486Z,14.75
2022-10-31T10:19:19.267Z,14.78
2022-10-31T10:22:13.368Z,14.86
2022-10-31T10:24:51.741Z,15.00
2022-10-31T10:27:30.513Z,15.11
2022-10-31T10:30:04.639Z,15.26
2022-10-31T10:32:41.360Z,15.34
2022-10-31T10:35:22.993Z,15.45
2022-10-31T10:37:53.725Z,15.44
2022-10-31T10:40:26.061Z,15.48
2022-10-31T10:43:23.477Z,15.53
2022-10-31T10:46:15.551Z,15.51
2022-10-31T10:48:47.872Z,15.74
2022-10-31T10:52:39.290Z,15.66
2022-10-31T10:55:28.007Z,15.72
2022-10-31T10:58:08.503Z,15.95
2022-10-31T11:00:50.856Z,16.05
2022-10-31T11:03:18.917Z,16.14
2022-10-31T11:05:52.316Z,15.91
2022-10-31T11:08:30.719Z,16.23
2022-10-31T11:11:03.574Z,16.32
2022-10-31T11:13:31.253Z,16.38
2022-10-31T11:16:04.829Z,16.40
2022-10-31T11:18:35.159Z,16.26
2022-10-31T11:21:04.349Z,16.47
2022-10-31T11:23:31.735Z,16.64
2022-10-31T11:26:03.719Z,16.73
2022-10-31T11:28:33.130Z,16.79
2022-10-31T11:31:01.575Z,16.81
2022-10-31T11:33:41.425Z,16.87
2022-10-31T11:36:23.032Z,16.64
2022-10-31T11:38:51.208Z,16.51
2022-10-31T11:41:20.700Z,16.60
2022-10-31T11:43:57.660Z,16.68
2022-10-31T11:46:52.885Z,16.80
2022-10-31T11:49:57.848Z,16.80
2022-10-31T11:52:31.006Z,16.62
2022-10-31T11:55:14.491Z,16.73
2022-10-31T11:57:44.026Z,16.76
2022-10-31T12:00:31.458Z,16.65
2022-10-31T12:03:34.238Z,16.69
2022-10-31T12:06:09.889Z,16.60
2022-10-31T12:08:38.229Z,16.71
2022-10-31T12:11:26.065Z,16.79
2022-10-31T12:14:06.393Z,16.63
2022-10-31T12:16:37.073Z,16.83
2022-10-31T12:19:10.613Z,16.82
2022-10-31T12:21:58.585Z,16.80
2022-10-31T12:24:56.815Z,16.75
2022-10-31T12:28:00.912Z,16.81
2022-10-31T12:30:48.750Z,16.89
2022-10-31T12:33:30.647Z,16.89
2022-10-31T12:36:22.105Z,16.83
2022-10-31T12:38:59.466Z,16.82
2022-10-31T12:41:50.908Z,16.81
2022-10-31T12:44:35.844Z,16.69
2022-10-31T12:47:19.434Z,16.84
2022-10-31T12:50:16.792Z,16.91
2022-10-31T12:52:58.737Z,17.00
2022-10-31T12:55:57.854Z,17.04
2022-10-31T12:58:50.561Z,16.98
2022-10-31T13:01:23.648Z,16.95
2022-10-31T13:04:03.795Z,16.92
2022-10-31T13:06:44.307Z,16.98
2022-10-31T13:09:18.677Z,17.02
2022-10-31T13:11:51.145Z,17.01
2022-10-31T13:14:48.405Z,17.10
2022-10-31T13:17:39.807Z,17.23
2022-10-31T13:20:24.840Z,17.34
2022-10-31T13:22:56.756Z,17.45
2022-10-31T13:25:32.485Z,17.55
2022-10-31T13:28:06.644Z,17.56
2022-10-31T13:30:37.375Z,17.62
2022-10-31T13:33:26.476Z,17.62
2022-10-31T13:36:17.249Z,17.70
2022-10-31T13:39:11.070Z,17.60
2022-10-31T13:41:54.773Z,17.66
2022-10-31T13:44:27.691Z,17.18
2022-10-31T13:46:56.600Z,17.72
2022-10-31T13:49:29.168Z,17.71
2022-10-31T13:52:10.700Z,17.62
2022-10-31T13:54:40.052Z,17.55
2022-10-31T13:57:34.016Z,17.54
2022-10-31T14:00:05.864Z,17.54
2022-10-31T14:02:45.711Z,17.42
2022-10-31T14:05:32.207Z,17.28
2022-10-31T14:08:02.453Z,16.66
2022-10-31T14:10:37.745Z,17.09
2022-10-31T14:13:21.788Z,17.05
2022-10-31T14:15:58.301Z,16.93
2022-10-31T14:18:50.730Z,16.81
2022-10-31T14:21:26.040Z,16.80
2022-10-31T14:23:55.017Z,16.79
2022-10-31T14:26:28.057Z,16.79
2022-10-31T14:28:58.636Z,16.78
2022-10-31T14:31:38.526Z,16.71
2022-10-31T14:34:21.206Z,16.68
2022-10-31T14:36:50.662Z,16.55
2022-10-31T14:39:36.457Z,16.50
2022-10-31T14:42:21.178Z,16.56
2022-10-31T14:45:13.504Z,16.56
2022-10-31T14:48:21.633Z,16.55
2022-10-31T14:50:59.252Z,16.53
2022-10-31T14:53:29.866Z,16.46
2022-10-31T14:56:01.393Z,16.43
2022-10-31T14:58:46.831Z,16.32
2022-10-31T15:01:26.059Z,16.02
2022-10-31T15:04:21.922Z,15.96
2022-10-31T15:06:43.810Z,15.89
2022-10-31T15:09:26.752Z,15.93
2022-10-31T15:11:53.369Z,16.00
2022-10-31T15:14:24.368Z,16.10
2022-10-31T15:16:51.859Z,16.03
2022-10-31T15:19:23.951Z,16.15
2022-10-31T15:21:53.132Z,16.01
2022-10-31T15:24:20.489Z,15.99
2022-10-31T15:26:49.868Z,15.99
2022-10-31T15:29:19.078Z,16.01
2022-10-31T15:31:57.005Z,15.80
2022-10-31T15:34:38.960Z,15.80
2022-10-31T15:37:10.716Z,15.88
2022-10-31T15:39:37.195Z,15.94
2022-10-31T15:42:04.307Z,15.86
2022-10-31T15:44:41.792Z,15.85
2022-10-31T15:47:17.967Z,15.73
2022-10-31T15:49:51.736Z,15.60
2022-10-31T15:52:28.599Z,15.36
2022-10-31T15:54:58.722Z,15.40
2022-10-31T15:57:27.217Z,15.35
2022-10-31T15:59:54.566Z,15.35
2022-10-31T16:02:25.888Z,15.28
2022-10-31T16:04:59.458Z,15.28
2022-10-31T16:07:26.411Z,15.34
2022-10-31T16:10:04.683Z,15.18
2022-10-31T16:12:46.033Z,15.17
2022-10-31T16:15:16.554Z,15.08
2022-10-31T16:17:46.622Z,14.97
2022-10-31T16:20:21.621Z,15.00
2022-10-31T16:22:51.164Z,15.02
2022-10-31T16:25:26.293Z,15.01
2022-10-31T16:27:55.116Z,14.98
2022-10-31T16:30:30.741Z,14.97
2022-10-31T16:33:00.138Z,14.94
2022-10-31T16:35:38.324Z,14.94
2022-10-31T16:38:05.814Z,14.90
2022-10-31T16:40:33.770Z,14.86
2022-10-31T16:43:01.478Z,14.53
2022-10-31T16:45:31.041Z,14.30
2022-10-31T16:48:11.872Z,14.01
2022-10-31T16:50:39.179Z,13.75
2022-10-31T16:53:13.695Z,13.96
2022-10-31T16:55:46.897Z,13.99
2022-10-31T16:58:21.632Z,13.87
2022-10-31T17:00:48.402Z,13.88
2022-10-31T17:03:15.029Z,13.83
2022-10-31T17:05:41.418Z,13.63
2022-10-31T17:08:07.933Z,13.37
2022-10-31T17:10:34.691Z,13.20
2022-10-31T17:13:03.771Z,12.96
2022-10-31T17:15:39.148Z,13.13
2022-10-31T17:18:05.592Z,13.22
2022-10-31T17:20:32.235Z,13.23
2022-10-31T17:23:00.182Z,13.21
2022-10-31T17:25:31.811Z,13.30
2022-10-31T17:27:59.294Z,13.35
2022-10-31T17:30:26.375Z,13.21
2022-10-31T17:32:53.232Z,13.36
2022-10-31T17:35:19.945Z,13.26
2022-10-31T17:37:46.962Z,13.35
2022-10-31T17:40:17.101Z,13.28
2022-10-31T17:42:49.549Z,13.24
2022-10-31T17:45:16.113Z,13.17
2022-10-31T17:47:42.582Z,13.16
2022-10-31T17:50:09.423Z,13.13
2022-10-31T17:52:35.819Z,12.91
2022-10-31T17:55:02.281Z,12.65
2022-10-31T17:57:33.696Z,12.88
2022-10-31T18:00:00.173Z,12.85
2022-10-31T18:02:26.681Z,12.79
2022-10-31T18:04:53.224Z,12.78
2022-10-31T18:07:20.223Z,12.77
2022-10-31T18:09:47.701Z,12.71
2022-10-31T18:12:15.356Z,12.58
2022-10-31T18:14:47.279Z,12.48
2022-10-31T18:17:15.090Z,12.55
2022-10-31T18:19:41.505Z,12.57
2022-10-31T18:22:07.948Z,12.62
2022-10-31T18:24:34.385Z,12.59
2022-10-31T18:27:00.852Z,12.57
2022-10-31T18:29:27.360Z,12.48
2022-10-31T18:31:54.425Z,12.09
2022-10-31T18:34:20.967Z,12.20
2022-10-31T18:36:47.775Z,12.22
2022-10-31T18:39:14.690Z,11.90
2022-10-31T18:41:41.135Z,12.16
2022-10-31T18:44:07.816Z,12.17
2022-10-31T18:46:35.112Z,12.06
2022-10-31T18:49:02.450Z,11.93
2022-10-31T18:51:28.996Z,12.06
2022-10-31T18:54:00.559Z,11.94
2022-10-31T18:56:29.029Z,11.93
2022-10-31T18:58:55.500Z,11.86
2022-10-31T19:01:22.279Z,11.75
2022-10-31T19:03:56.274Z,11.83
2022-10-31T19:06:24.923Z,11.84
2022-10-31T19:08:57.458Z,11.73
2022-10-31T19:11:23.902Z,11.56
2022-10-31T19:13:50.356Z,11.56
2022-10-31T19:16:17.047Z,11.56
2022-10-31T19:18:44.111Z,11.60
2022-10-31T19:21:15.948Z,11.63
2022-10-31T19:23:43.200Z,11.54
2022-10-31T19:26:10.270Z,11.53
2022-10-31T19:28:39.258Z,11.44
2022-10-31T19:31:06.691Z,11.30
2022-10-31T19:33:36.029Z,11.11
2022-10-31T19:36:09.643Z,11.18
2022-10-31T19:38:41.508Z,11.17
2022-10-31T19:41:11.334Z,11.27
2022-10-31T19:43:37.824Z,11.28
2022-10-31T19:46:07.027Z,11.26
2022-10-31T19:48:36.398Z,11.28
2022-10-31T19:51:05.728Z,11.27
2022-10-31T19:53:32.231Z,11.14
2022-10-31T19:55:59.684Z,11.12
2022-10-31T19:58:26.794Z,11.12
2022-10-31T20:00:54.032Z,10.98
2022-10-31T20:03:22.532Z,11.07
2022-10-31T20:05:50.300Z,10.98
2022-10-31T20:08:21.649Z,10.71
2022-10-31T20:11:00.087Z,11.02
2022-10-31T20:13:28.171Z,11.05
2022-10-31T20:16:02.674Z,10.98
2022-10-31T20:18:29.819Z,10.88
2022-10-31T20:21:12.466Z,10.80
2022-10-31T20:23:39.900Z,10.64
2022-10-31T20:26:09.355Z,10.50
2022-10-31T20:28:39.959Z,10.56
2022-10-31T20:31:12.806Z,10.58
2022-10-31T20:33:39.808Z,10.66
2022-10-31T20:36:08.037Z,10.67
2022-10-31T20:38:38.100Z,10.80
2022-10-31T20:41:06.825Z,10.75
2022-10-31T20:43:34.261Z,10.59
2022-10-31T20:46:05.562Z,10.66
2022-10-31T20:48:32.724Z,10.55
2022-10-31T20:51:06.428Z,10.61
2022-10-31T20:53:33.951Z,9.84
2022-10-31T20:56:22.333Z,10.33
2022-10-31T20:58:49.572Z,10.41
2022-10-31T21:01:24.896Z,10.40
2022-10-31T21:03:52.019Z,10.39
2022-10-31T21:06:19.879Z,10.48
2022-10-31T21:08:47.129Z,10.50
2022-10-31T21:11:16.556Z,10.53
2022-10-31T21:13:44.659Z,10.61
2022-10-31T21:16:15.020Z,10.61
2022-10-31T21:18:43.372Z,10.60
2022-10-31T21:21:12.412Z,10.53
2022-10-31T21:23:39.365Z,10.72
2022-10-31T21:26:12.588Z,10.66
2022-10-31T21:28:39.332Z,10.65
2022-10-31T21:31:08.319Z,10.58
2022-10-31T21:33:35.309Z,10.55
2022-10-31T21:36:02.306Z,10.49
2022-10-31T21:38:29.014Z,10.70
2022-10-31T21:41:03.778Z,10.49
2022-10-31T21:43:30.706Z,10.50
2022-10-31T21:46:03.210Z,10.45
2022-10-31T21:48:30.050Z,10.33
2022-10-31T21:50:56.516Z,10.39
2022-10-31T21:53:41.311Z,9.81
2022-10-31T21:56:08.211Z,10.47
2022-10-31T21:58:36.316Z,10.45
2022-10-31T22:01:05.427Z,10.50
2022-10-31T22:03:36.873Z,10.54
2022-10-31T22:06:07.955Z,10.47
2022-10-31T22:08:34.694Z,10.49
2022-10-31T22:11:05.547Z,10.45
2022-10-31T22:13:32.875Z,10.42
2022-10-31T22:16:04.041Z,10.45
2022-10-31T22:18:30.923Z,10.47
2022-10-31T22:21:05.850Z,10.52
2022-10-31T22:23:32.688Z,10.52
2022-10-31T22:26:14.000Z,10.53
2022-10-31T22:28:46.468Z,10.60
2022-10-31T22:31:17.848Z,10.53
2022-10-31T22:33:45.686Z,10.50
2022-10-31T22:36:15.231Z,10.44
2022-10-31T22:38:42.283Z,10.58
2022-10-31T22:41:20.176Z,10.42
2022-10-31T22:43:47.612Z,10.40
2022-10-31T22:46:16.760Z,10.33
2022-10-31T22:48:48.313Z,10.15
2022-10-31T22:51:20.771Z,9.96
2022-10-31T22:53:48.000Z,9.98
2022-10-31T22:56:17.247Z,9.97
2022-10-31T22:58:44.306Z,10.05
2022-10-31T23:01:16.030Z,10.13
2022-10-31T23:03:42.727Z,10.25
2022-10-31T23:06:15.464Z,10.31
2022-10-31T23:08:42.852Z,10.45
2022-10-31T23:11:21.172Z,10.51
2022-10-31T23:14:07.871Z,10.61
2022-10-31T23:16:40.175Z,10.77
2022-10-31T23:19:08.066Z,10.80
2022-10-31T23:21:55.063Z,10.88
2022-10-31T23:24:45.324Z,11.03
2022-10-31T23:27:21.088Z,11.24
2022-10-31T23:29:47.500Z,11.34
2022-10-31T23:32:21.412Z,11.55
2022-10-31T23:34:52.849Z,11.77
2022-10-31T23:37:21.604Z,11.95
2022-10-31T23:39:48.651Z,12.08
2022-10-31T23:42:15.770Z,12.16
2022-10-31T23:44:42.917Z,12.47
2022-10-31T23:47:09.371Z,12.72
2022-10-31T23:49:35.915Z,12.96
2022-10-31T23:52:03.491Z,13.10
2022-10-31T23:54:30.600Z,13.24
2022-10-31T23:56:58.050Z,13.37
2022-10-31T23:59:25.913Z,13.48
